createdAt,value
2018-02-07T00:02:11.703Z,46.15
2018-02-07T00:04:37.632Z,42.47
2018-02-07T00:07:03.595Z,44.30
2018-02-07T00:09:29.568Z,42.45
2018-02-07T00:11:55.678Z,49.13
2018-02-07T00:14:22.387Z,47.00
2018-02-07T00:16:48.364Z,48.53
2018-02-07T00:19:14.292Z,43.30
2018-02-07T00:21:40.256Z,42.97
2018-02-07T00:24:06.227Z,50.65
2018-02-07T00:26:32.180Z,39.88
2018-02-07T00:28:58.431Z,45.63
2018-02-07T00:31:24.370Z,50.05
2018-02-07T00:33:51.080Z,42.30
2018-02-07T00:36:17.093Z,44.45
2018-02-07T00:38:43.033Z,49.75
2018-02-07T00:41:09.196Z,57.28
2018-02-07T00:43:35.324Z,43.03
2018-02-07T00:46:01.281Z,44.97
2018-02-07T00:48:27.231Z,48.20
2018-02-07T00:50:53.235Z,49.22
2018-02-07T00:53:19.181Z,43.20
2018-02-07T00:55:45.173Z,47.92
2018-02-07T00:58:11.113Z,52.72
2018-02-07T01:00:37.062Z,55.47
2018-02-07T01:03:03.910Z,54.63
2018-02-07T01:05:30.599Z,48.25
2018-02-07T01:07:56.708Z,53.85
2018-02-07T01:10:22.703Z,41.58
2018-02-07T01:12:49.401Z,54.25
2018-02-07T01:15:15.339Z,47.30
2018-02-07T01:17:41.331Z,49.83
2018-02-07T01:20:07.303Z,46.50
2018-02-07T01:22:33.990Z,45.97
2018-02-07T01:24:59.961Z,48.85
2018-02-07T01:27:26.055Z,45.75
2018-02-07T01:29:52.026Z,43.72
2018-02-07T01:32:17.976Z,41.05
2018-02-07T01:34:43.956Z,42.72
2018-02-07T01:37:10.772Z,46.63
2018-02-07T01:39:36.712Z,41.25
2018-02-07T01:42:03.432Z,42.20
2018-02-07T01:44:30.156Z,45.33
2018-02-07T01:46:56.102Z,48.03
2018-02-07T01:49:22.092Z,45.03
2018-02-07T01:51:48.165Z,46.35
2018-02-07T01:54:14.917Z,41.33
2018-02-07T01:56:40.861Z,42.08
2018-02-07T01:59:06.916Z,47.40
2018-02-07T02:01:32.851Z,45.35
2018-02-07T02:03:58.831Z,46.60
2018-02-07T02:06:24.780Z,48.87
2018-02-07T02:08:50.855Z,43.50
2018-02-07T02:11:16.795Z,38.63
2018-02-07T02:13:42.758Z,44.55
2018-02-07T02:16:08.733Z,39.85
2018-02-07T02:18:34.719Z,41.10
2018-02-07T02:21:01.555Z,38.08
2018-02-07T02:23:27.508Z,41.47
2018-02-07T02:25:53.448Z,42.08
2018-02-07T02:28:19.408Z,41.90
2018-02-07T02:30:45.370Z,36.17
2018-02-07T02:33:11.314Z,37.83
2018-02-07T02:35:37.387Z,41.60
2018-02-07T02:38:03.447Z,48.13
2018-02-07T02:40:29.394Z,44.53
2018-02-07T02:42:55.355Z,41.47
2018-02-07T02:45:21.298Z,44.85
2018-02-07T02:47:47.985Z,38.97
2018-02-07T02:50:13.954Z,39.90
2018-02-07T02:52:40.624Z,40.90
2018-02-07T02:55:06.703Z,37.47
2018-02-07T02:57:32.619Z,40.30
2018-02-07T02:59:58.578Z,40.37
2018-02-07T03:02:24.649Z,42.10
2018-02-07T03:04:50.595Z,41.80
2018-02-07T03:07:17.313Z,43.38
2018-02-07T03:09:43.293Z,42.83
2018-02-07T03:12:09.251Z,42.55
2018-02-07T03:14:35.224Z,47.75
2018-02-07T03:17:01.159Z,42.10
2018-02-07T03:19:27.096Z,46.90
2018-02-07T03:21:53.211Z,44.95
2018-02-07T03:24:19.179Z,46.10
2018-02-07T03:26:45.134Z,42.47
2018-02-07T03:29:11.077Z,46.05
2018-02-07T03:31:37.031Z,44.50
2018-02-07T03:34:02.980Z,50.50
2018-02-07T03:36:29.966Z,44.00
2018-02-07T03:38:55.943Z,49.00
2018-02-07T03:41:21.882Z,43.08
2018-02-07T03:43:48.604Z,46.37
2018-02-07T03:46:14.532Z,47.17
2018-02-07T03:48:41.371Z,49.50
2018-02-07T03:51:08.070Z,49.45
2018-02-07T03:53:34.011Z,50.90
2018-02-07T03:56:00.016Z,49.92
2018-02-07T03:58:25.971Z,45.15
2018-02-07T04:00:51.944Z,47.00
2018-02-07T04:03:17.887Z,43.50
2018-02-07T04:05:44.079Z,44.28
2018-02-07T04:08:10.052Z,47.20
2018-02-07T04:10:36.132Z,48.53
2018-02-07T04:13:02.871Z,43.00
2018-02-07T04:15:28.799Z,45.53
2018-02-07T04:17:54.731Z,54.25
2018-02-07T04:20:20.716Z,45.12
2018-02-07T04:22:46.811Z,50.12
2018-02-07T04:25:12.812Z,43.22
2018-02-07T04:27:39.063Z,43.83
2018-02-07T04:30:05.018Z,46.53
2018-02-07T04:32:30.943Z,45.00
2018-02-07T04:34:56.944Z,41.40
2018-02-07T04:37:23.638Z,46.47
2018-02-07T04:39:49.612Z,46.03
2018-02-07T04:42:16.303Z,44.60
2018-02-07T04:44:42.399Z,43.70
2018-02-07T04:47:08.334Z,48.63
2018-02-07T04:49:34.284Z,47.85
2018-02-07T04:52:00.255Z,49.15
2018-02-07T04:54:26.186Z,46.97
2018-02-07T04:56:52.166Z,48.38
2018-02-07T04:59:18.094Z,47.03
2018-02-07T05:01:44.951Z,42.72
2018-02-07T05:04:10.936Z,48.17
2018-02-07T05:06:36.874Z,43.47
2018-02-07T05:09:02.828Z,45.35
2018-02-07T05:11:28.777Z,48.45
2018-02-07T05:13:54.762Z,39.58
2018-02-07T05:16:21.445Z,45.88
2018-02-07T05:18:47.386Z,53.20
2018-02-07T05:21:13.483Z,40.53
2018-02-07T05:23:39.428Z,42.15
2018-02-07T05:26:05.419Z,43.80
2018-02-07T05:28:31.379Z,49.35
2018-02-07T05:30:57.387Z,44.00
2018-02-07T05:33:23.364Z,46.17
2018-02-07T05:35:49.563Z,46.85
2018-02-07T05:38:16.307Z,43.13
2018-02-07T05:40:43.050Z,45.58
2018-02-07T05:43:09.804Z,49.83
2018-02-07T05:45:36.511Z,49.22
2018-02-07T05:48:02.489Z,43.97
2018-02-07T05:50:28.454Z,41.92
2018-02-07T05:52:54.452Z,49.00
2018-02-07T05:55:21.551Z,43.53
2018-02-07T05:57:48.255Z,57.42
2018-02-07T06:00:14.223Z,49.88
2018-02-07T06:02:40.906Z,44.45
2018-02-07T06:05:06.891Z,45.58
2018-02-07T06:07:32.832Z,48.38
2018-02-07T06:09:58.792Z,43.22
2018-02-07T06:12:24.891Z,44.33
2018-02-07T06:14:50.841Z,44.00
2018-02-07T06:17:16.800Z,44.50
2018-02-07T06:19:42.757Z,43.87
2018-02-07T06:22:08.748Z,44.92
2018-02-07T06:24:34.701Z,48.90
2018-02-07T06:27:00.635Z,42.90
2018-02-07T06:29:26.744Z,48.75
2018-02-07T06:31:53.592Z,44.55
2018-02-07T06:34:19.699Z,44.13
2018-02-07T06:36:45.623Z,42.25
2018-02-07T06:39:11.600Z,42.50
2018-02-07T06:41:37.564Z,44.88
2018-02-07T06:44:03.519Z,52.17
2018-02-07T06:46:29.636Z,45.53
2018-02-07T06:48:55.588Z,44.83
2018-02-07T06:51:21.552Z,49.10
2018-02-07T06:53:47.545Z,51.83
2018-02-07T06:56:14.254Z,46.45
2018-02-07T06:58:40.199Z,50.00
2018-02-07T07:01:06.147Z,52.83
2018-02-07T07:03:32.243Z,45.97
2018-02-07T07:05:58.960Z,52.13
2018-02-07T07:08:24.927Z,50.90
2018-02-07T07:10:50.940Z,47.83
2018-02-07T07:13:17.767Z,52.75
2018-02-07T07:15:44.541Z,45.92
2018-02-07T07:18:10.788Z,52.20
2018-02-07T07:20:36.909Z,47.70
2018-02-07T07:23:02.912Z,45.95
2018-02-07T07:25:31.044Z,51.53
2018-02-07T07:27:57.990Z,50.22
2018-02-07T07:30:23.967Z,53.47
2018-02-07T07:32:49.981Z,52.10
2018-02-07T07:35:16.091Z,52.28
2018-02-07T07:37:42.840Z,59.30
2018-02-07T07:40:09.588Z,58.83
2018-02-07T07:42:35.596Z,52.20
2018-02-07T07:45:02.543Z,52.75
2018-02-07T07:47:28.532Z,50.40
2018-02-07T07:49:54.548Z,61.10
2018-02-07T07:52:20.528Z,65.97
2018-02-07T07:54:47.195Z,58.78
2018-02-07T07:57:13.183Z,56.03
2018-02-07T07:59:39.415Z,65.10
2018-02-07T08:02:05.404Z,58.33
2018-02-07T08:04:31.368Z,59.75
2018-02-07T08:06:57.380Z,57.03
2018-02-07T08:09:23.371Z,51.03
2018-02-07T08:11:49.512Z,61.75
2018-02-07T08:14:16.227Z,63.60
2018-02-07T08:16:42.237Z,55.08
2018-02-07T08:19:08.233Z,54.50
2018-02-07T08:21:34.219Z,54.75
2018-02-07T08:24:01.269Z,60.25
2018-02-07T08:26:27.991Z,59.50
2018-02-07T08:28:54.311Z,57.90
2018-02-07T08:31:20.462Z,56.97
2018-02-07T08:33:46.661Z,55.92
2018-02-07T08:36:12.665Z,53.97
2018-02-07T08:38:38.656Z,59.15
2018-02-07T08:41:05.441Z,54.90
2018-02-07T08:43:32.416Z,57.47
2018-02-07T08:45:59.824Z,57.83
2018-02-07T08:48:26.452Z,61.28
2018-02-07T08:50:53.467Z,51.63
2018-02-07T08:53:21.454Z,53.72
2018-02-07T08:55:47.445Z,55.95
2018-02-07T08:58:13.453Z,60.05
2018-02-07T09:00:39.457Z,53.08
2018-02-07T09:03:06.117Z,57.60
2018-02-07T09:05:33.730Z,53.87
2018-02-07T09:07:59.793Z,55.45
2018-02-07T09:10:27.835Z,52.60
2018-02-07T09:12:56.226Z,56.35
2018-02-07T09:15:24.665Z,61.85
2018-02-07T09:17:52.446Z,54.38
2018-02-07T09:20:18.527Z,63.45
2018-02-07T09:22:47.086Z,55.33
2018-02-07T09:25:15.927Z,60.72
2018-02-07T09:27:44.719Z,55.53
2018-02-07T09:30:11.498Z,53.75
2018-02-07T09:32:39.263Z,59.08
2018-02-07T09:35:09.584Z,51.92
2018-02-07T09:37:37.624Z,50.92
2018-02-07T09:40:05.546Z,53.28
2018-02-07T09:42:35.435Z,58.15
2018-02-07T09:45:03.473Z,55.35
2018-02-07T09:47:31.392Z,48.95
2018-02-07T09:49:59.385Z,58.97
2018-02-07T09:52:26.901Z,58.55
2018-02-07T09:54:53.549Z,58.45
2018-02-07T09:57:20.688Z,49.17
2018-02-07T09:59:46.793Z,50.67
2018-02-07T10:02:12.867Z,48.95
2018-02-07T10:04:40.482Z,49.00
2018-02-07T10:07:06.440Z,52.90
2018-02-07T10:09:33.192Z,59.78
2018-02-07T10:11:59.128Z,55.47
2018-02-07T10:14:25.795Z,52.40
2018-02-07T10:16:51.852Z,55.53
2018-02-07T10:19:17.815Z,61.58
2018-02-07T10:21:44.512Z,58.03
2018-02-07T10:24:10.484Z,56.15
2018-02-07T10:26:37.160Z,62.60
2018-02-07T10:29:03.254Z,59.72
2018-02-07T10:31:29.336Z,58.78
2018-02-07T10:33:55.271Z,54.10
2018-02-07T10:36:22.140Z,52.33
2018-02-07T10:38:48.067Z,57.65
2018-02-07T10:41:14.018Z,63.93
2018-02-07T10:43:40.012Z,57.20
2018-02-07T10:46:05.945Z,52.85
2018-02-07T10:48:31.915Z,53.40
2018-02-07T10:50:57.855Z,46.95
2018-02-07T10:53:24.704Z,51.65
2018-02-07T10:55:51.404Z,55.83
2018-02-07T10:58:17.349Z,52.67
2018-02-07T11:00:43.314Z,59.35
2018-02-07T11:03:09.256Z,56.35
2018-02-07T11:05:35.252Z,53.17
2018-02-07T11:08:01.175Z,46.60
2018-02-07T11:10:27.107Z,57.23
2018-02-07T11:12:53.203Z,51.03
2018-02-07T11:15:19.912Z,45.60
2018-02-07T11:17:45.846Z,57.55
2018-02-07T11:20:12.556Z,57.58
2018-02-07T11:22:38.685Z,50.38
2018-02-07T11:25:04.652Z,56.28
2018-02-07T11:27:30.808Z,56.08
2018-02-07T11:29:56.794Z,48.87
2018-02-07T11:32:23.508Z,54.88
2018-02-07T11:34:49.491Z,50.33
2018-02-07T11:37:15.455Z,50.55
2018-02-07T11:39:41.400Z,52.30
2018-02-07T11:42:07.496Z,49.40
2018-02-07T11:44:33.427Z,46.60
2018-02-07T11:46:59.367Z,53.83
2018-02-07T11:49:25.457Z,51.70
2018-02-07T11:51:51.403Z,47.95
2018-02-07T11:54:18.132Z,49.92
2018-02-07T11:56:44.068Z,50.53
2018-02-07T11:59:10.794Z,46.45
2018-02-07T12:01:36.723Z,54.50
2018-02-07T12:04:03.542Z,46.73
2018-02-07T12:06:29.496Z,50.22
2018-02-07T12:08:56.210Z,49.17
2018-02-07T12:11:22.145Z,46.58
2018-02-07T12:13:48.083Z,53.27
2018-02-07T12:16:14.055Z,48.92
2018-02-07T12:18:40.008Z,50.72
2018-02-07T12:21:05.953Z,49.33
2018-02-07T12:23:32.043Z,54.30
2018-02-07T12:25:57.990Z,50.42
2018-02-07T12:28:24.663Z,49.42
2018-02-07T12:30:50.624Z,43.03
2018-02-07T12:33:16.640Z,48.40
2018-02-07T12:35:42.842Z,50.35
2018-02-07T12:38:08.787Z,56.78
2018-02-07T12:40:34.813Z,53.53
2018-02-07T12:43:00.765Z,52.53
2018-02-07T12:45:26.722Z,48.20
2018-02-07T12:47:52.716Z,48.53
2018-02-07T12:50:19.414Z,55.88
2018-02-07T12:52:45.369Z,49.60
2018-02-07T12:55:12.205Z,54.53
2018-02-07T12:57:38.140Z,54.33
2018-02-07T13:00:04.113Z,62.38
2018-02-07T13:02:30.032Z,54.38
2018-02-07T13:04:55.995Z,49.63
2018-02-07T13:07:22.659Z,53.00
2018-02-07T13:09:48.752Z,58.53
2018-02-07T13:12:14.707Z,54.35
2018-02-07T13:14:40.652Z,56.58
2018-02-07T13:17:06.651Z,54.38
2018-02-07T13:19:32.598Z,59.28
2018-02-07T13:21:58.559Z,56.90
2018-02-07T13:24:24.530Z,56.58
2018-02-07T13:26:50.551Z,56.65
2018-02-07T13:29:16.483Z,48.45
2018-02-07T13:31:42.424Z,49.50
2018-02-07T13:34:08.398Z,53.27
2018-02-07T13:36:34.462Z,55.35
2018-02-07T13:39:00.441Z,56.22
2018-02-07T13:41:26.404Z,52.20
2018-02-07T13:43:52.351Z,52.10
2018-02-07T13:46:18.457Z,57.00
2018-02-07T13:48:44.395Z,53.17
2018-02-07T13:51:10.448Z,46.80
2018-02-07T13:53:36.369Z,49.58
2018-02-07T13:56:02.374Z,48.83
2018-02-07T13:58:28.357Z,46.40
2018-02-07T14:00:54.299Z,52.25
2018-02-07T14:03:20.379Z,52.47
2018-02-07T14:05:46.329Z,51.60
2018-02-07T14:08:12.305Z,44.38
2018-02-07T14:10:38.989Z,46.28
2018-02-07T14:13:04.972Z,49.20
2018-02-07T14:15:31.672Z,46.60
2018-02-07T14:17:57.621Z,47.70
2018-02-07T14:20:24.363Z,39.20
2018-02-07T14:22:50.299Z,48.75
2018-02-07T14:25:16.278Z,45.77
2018-02-07T14:27:42.360Z,44.05
2018-02-07T14:30:08.347Z,43.33
2018-02-07T14:32:35.035Z,44.25
2018-02-07T14:35:01.088Z,45.67
2018-02-07T14:37:27.020Z,49.67
2018-02-07T14:39:52.996Z,43.10
2018-02-07T14:42:18.952Z,54.85
2018-02-07T14:44:44.919Z,40.85
2018-02-07T14:47:10.902Z,37.50
2018-02-07T14:49:36.852Z,40.72
2018-02-07T14:52:03.602Z,43.45
2018-02-07T14:54:29.556Z,44.22
2018-02-07T14:56:55.528Z,45.70
2018-02-07T14:59:22.218Z,38.35
2018-02-07T15:01:48.232Z,41.10
2018-02-07T15:04:14.183Z,49.40
2018-02-07T15:06:40.207Z,46.97
2018-02-07T15:09:06.213Z,45.08
2018-02-07T15:11:32.211Z,36.55
2018-02-07T15:13:58.151Z,43.30
2018-02-07T15:16:24.116Z,39.72
2018-02-07T15:18:50.088Z,47.47
2018-02-07T15:21:16.082Z,43.10
2018-02-07T15:23:42.051Z,40.42
2018-02-07T15:26:07.996Z,41.65
2018-02-07T15:28:34.099Z,43.42
2018-02-07T15:31:00.175Z,39.40
2018-02-07T15:33:26.118Z,42.00
2018-02-07T15:35:52.240Z,40.58
2018-02-07T15:38:18.181Z,39.78
2018-02-07T15:40:44.193Z,45.38
2018-02-07T15:43:10.149Z,38.17
2018-02-07T15:45:36.251Z,38.90
2018-02-07T15:48:02.244Z,40.42
2018-02-07T15:50:28.256Z,40.80
2018-02-07T15:52:54.956Z,43.53
2018-02-07T15:55:20.930Z,42.90
2018-02-07T15:57:46.995Z,44.78
2018-02-07T16:00:12.932Z,44.00
2018-02-07T16:02:38.905Z,44.17
2018-02-07T16:05:04.877Z,44.15
2018-02-07T16:07:30.856Z,43.15
2018-02-07T16:09:56.841Z,41.20
2018-02-07T16:12:23.524Z,43.22
2018-02-07T16:14:50.391Z,43.22
2018-02-07T16:17:16.343Z,39.53
2018-02-07T16:19:43.063Z,46.43
2018-02-07T16:22:09.045Z,43.20
2018-02-07T16:24:35.042Z,52.70
2018-02-07T16:27:01.059Z,45.78
2018-02-07T16:29:27.747Z,54.33
2018-02-07T16:31:53.817Z,44.55
2018-02-07T16:34:20.522Z,42.67
2018-02-07T16:36:46.634Z,45.53
2018-02-07T16:39:12.590Z,43.65
2018-02-07T16:41:38.572Z,43.28
2018-02-07T16:44:04.623Z,50.90
2018-02-07T16:46:30.583Z,49.05
2018-02-07T16:49:00.492Z,46.15
2018-02-07T16:51:27.187Z,51.72
2018-02-07T16:54:00.943Z,46.13
2018-02-07T16:56:35.575Z,41.70
2018-02-07T16:59:01.558Z,46.97
2018-02-07T17:01:27.495Z,48.05
2018-02-07T17:03:54.192Z,49.88
2018-02-07T17:06:20.287Z,41.00
2018-02-07T17:08:46.241Z,41.75
2018-02-07T17:11:12.231Z,49.03
2018-02-07T17:13:38.186Z,45.78
2018-02-07T17:16:04.197Z,48.90
2018-02-07T17:18:30.160Z,51.40
2018-02-07T17:20:56.096Z,53.90
2018-02-07T17:23:22.112Z,47.62
2018-02-07T17:25:50.050Z,43.40
2018-02-07T17:28:16.155Z,52.90
2018-02-07T17:30:42.113Z,45.15
2018-02-07T17:33:08.097Z,51.08
2018-02-07T17:35:34.175Z,45.72
2018-02-07T17:38:00.920Z,48.83
2018-02-07T17:40:27.632Z,51.08
2018-02-07T17:42:53.610Z,53.25
2018-02-07T17:45:20.336Z,51.28
2018-02-07T17:47:47.038Z,49.90
2018-02-07T17:50:13.011Z,44.47
2018-02-07T17:52:38.950Z,47.47
2018-02-07T17:55:05.094Z,51.80
2018-02-07T17:57:31.057Z,52.47
2018-02-07T17:59:57.767Z,45.65
2018-02-07T18:02:23.770Z,49.65
2018-02-07T18:04:49.730Z,58.58
2018-02-07T18:07:15.699Z,43.35
2018-02-07T18:09:41.667Z,50.30
2018-02-07T18:12:07.785Z,49.83
2018-02-07T18:14:33.782Z,50.40
2018-02-07T18:16:59.788Z,54.60
2018-02-07T18:19:25.812Z,55.12
2018-02-07T18:21:51.762Z,51.20
2018-02-07T18:24:17.761Z,59.38
2018-02-07T18:26:43.750Z,49.08
2018-02-07T18:29:10.590Z,52.65
2018-02-07T18:31:36.586Z,47.15
2018-02-07T18:34:02.569Z,47.33
2018-02-07T18:36:28.657Z,53.00
2018-02-07T18:38:55.478Z,52.65
2018-02-07T18:41:21.455Z,50.90
2018-02-07T18:43:47.387Z,48.65
2018-02-07T18:46:13.489Z,57.90
2018-02-07T18:48:39.461Z,48.17
2018-02-07T18:51:05.449Z,54.30
2018-02-07T18:53:31.424Z,54.33
2018-02-07T18:55:57.516Z,50.88
2018-02-07T18:58:23.500Z,58.15
2018-02-07T19:00:49.542Z,58.15
2018-02-07T19:03:15.516Z,53.08
2018-02-07T19:05:41.509Z,53.55
2018-02-07T19:08:07.496Z,47.62
2018-02-07T19:10:33.453Z,49.90
2018-02-07T19:12:59.543Z,52.83
2018-02-07T19:15:25.521Z,51.22
2018-02-07T19:17:51.491Z,50.42
2018-02-07T19:20:17.476Z,55.47
2018-02-07T19:22:44.188Z,52.60
2018-02-07T19:25:10.197Z,52.47
2018-02-07T19:27:36.212Z,57.88
2018-02-07T19:30:02.328Z,45.83
2018-02-07T19:32:28.273Z,51.47
2018-02-07T19:34:54.434Z,52.25
2018-02-07T19:37:20.423Z,55.60
2018-02-07T19:39:46.459Z,55.95
2018-02-07T19:42:12.433Z,58.50
2018-02-07T19:44:38.827Z,49.70
2018-02-07T19:47:05.564Z,47.13
2018-02-07T19:49:31.546Z,49.67
2018-02-07T19:51:57.757Z,55.78
2018-02-07T19:54:23.716Z,53.80
2018-02-07T19:56:49.682Z,54.00
2018-02-07T19:59:16.448Z,57.20
2018-02-07T20:01:42.466Z,54.83
2018-02-07T20:04:08.440Z,51.60
2018-02-07T20:06:34.464Z,53.22
2018-02-07T20:09:00.780Z,49.38
2018-02-07T20:11:27.906Z,58.40
2018-02-07T20:13:53.916Z,51.40
2018-02-07T20:16:21.166Z,56.33
2018-02-07T20:18:48.723Z,65.57
2018-02-07T20:21:14.878Z,52.80
2018-02-07T20:23:42.008Z,57.15
2018-02-07T20:26:08.795Z,53.35
2018-02-07T20:28:35.825Z,53.00
2018-02-07T20:31:01.847Z,52.50
2018-02-07T20:33:28.906Z,54.58
2018-02-07T20:35:55.134Z,54.92
2018-02-07T20:38:21.168Z,54.05
2018-02-07T20:40:48.552Z,51.20
2018-02-07T20:43:14.633Z,55.75
2018-02-07T20:45:42.469Z,47.85
2018-02-07T20:48:09.912Z,60.45
2018-02-07T20:50:36.011Z,58.20
2018-02-07T20:53:04.318Z,55.08
2018-02-07T20:55:33.554Z,53.20
2018-02-07T20:58:00.099Z,52.30
2018-02-07T21:00:29.019Z,51.97
2018-02-07T21:02:57.522Z,57.38
2018-02-07T21:05:25.638Z,52.05
2018-02-07T21:07:55.105Z,54.72
2018-02-07T21:10:23.168Z,50.65
2018-02-07T21:12:49.977Z,56.47
2018-02-07T21:15:19.117Z,57.05
2018-02-07T21:17:47.372Z,53.53
2018-02-07T21:20:16.308Z,63.75
2018-02-07T21:22:43.503Z,51.92
2018-02-07T21:25:12.029Z,59.20
2018-02-07T21:27:38.686Z,52.15
2018-02-07T21:30:07.882Z,58.03
2018-02-07T21:32:35.827Z,61.53
2018-02-07T21:35:03.951Z,55.38
2018-02-07T21:37:31.369Z,54.45
2018-02-07T21:39:59.428Z,51.15
2018-02-07T21:42:28.108Z,58.45
2018-02-07T21:44:54.069Z,54.42
2018-02-07T21:47:21.954Z,50.80
2018-02-07T21:49:49.075Z,50.17
2018-02-07T21:52:18.624Z,54.10
2018-02-07T21:54:45.887Z,54.25
2018-02-07T21:57:13.805Z,57.25
2018-02-07T21:59:42.378Z,50.65
2018-02-07T22:02:09.196Z,58.40
2018-02-07T22:04:38.127Z,56.13
2018-02-07T22:07:05.416Z,54.15
2018-02-07T22:09:34.102Z,58.95
2018-02-07T22:12:02.256Z,53.30
2018-02-07T22:14:30.269Z,56.30
2018-02-07T22:16:59.981Z,56.42
2018-02-07T22:19:26.849Z,54.33
2018-02-07T22:21:55.159Z,57.33
2018-02-07T22:24:24.826Z,56.75
2018-02-07T22:26:53.847Z,56.00
2018-02-07T22:29:23.987Z,55.83
2018-02-07T22:31:51.173Z,52.97
2018-02-07T22:34:20.751Z,55.42
2018-02-07T22:36:48.236Z,49.28
2018-02-07T22:39:17.337Z,53.65
2018-02-07T22:41:45.334Z,55.17
2018-02-07T22:44:14.073Z,60.00
2018-02-07T22:46:44.043Z,58.33
2018-02-07T22:49:13.052Z,59.72
2018-02-07T22:51:42.677Z,52.92
2018-02-07T22:54:10.455Z,56.10
2018-02-07T22:56:38.290Z,55.25
2018-02-07T22:59:08.429Z,51.70
2018-02-07T23:01:36.670Z,54.88
2018-02-07T23:04:04.521Z,58.08
2018-02-07T23:06:32.406Z,56.20
2018-02-07T23:08:59.113Z,60.75
2018-02-07T23:11:27.892Z,52.67
2018-02-07T23:13:56.736Z,59.78
2018-02-07T23:16:26.121Z,49.70
2018-02-07T23:18:53.639Z,51.75
2018-02-07T23:21:21.913Z,53.78
2018-02-07T23:23:50.237Z,51.28
2018-02-07T23:26:17.433Z,59.15
2018-02-07T23:28:45.568Z,57.83
2018-02-07T23:31:14.915Z,56.70
2018-02-07T23:33:42.057Z,57.83
2018-02-07T23:36:10.225Z,50.85
2018-02-07T23:38:36.223Z,59.72
2018-02-07T23:41:04.673Z,58.78
2018-02-07T23:43:34.605Z,50.75
2018-02-07T23:46:03.576Z,54.67
2018-02-07T23:48:32.171Z,58.20
2018-02-07T23:51:00.936Z,61.80
2018-02-07T23:53:28.052Z,51.72
2018-02-07T23:55:56.290Z,62.35
2018-02-07T23:58:24.808Z,54.25
